createdAt,value
2019-05-23T00:00:10.923Z,60.90
2019-05-23T00:00:46.092Z,55.00
2019-05-23T00:01:21.457Z,67.60
2019-05-23T00:01:56.925Z,77.60
2019-05-23T00:02:32.232Z,97.00
2019-05-23T00:03:07.396Z,100.30
2019-05-23T00:03:42.489Z,78.30
2019-05-23T00:04:17.968Z,75.60
2019-05-23T00:04:53.180Z,87.00
2019-05-23T00:05:28.549Z,85.50
2019-05-23T00:06:04.044Z,83.70
2019-05-23T00:06:39.233Z,68.00
2019-05-23T00:07:14.631Z,75.00
2019-05-23T00:07:49.907Z,81.80
2019-05-23T00:08:25.308Z,95.40
2019-05-23T00:09:00.776Z,81.20
2019-05-23T00:09:35.960Z,74.70
2019-05-23T00:10:11.424Z,75.90
2019-05-23T00:10:47.027Z,81.70
2019-05-23T00:11:22.604Z,78.50
2019-05-23T00:11:57.720Z,65.90
2019-05-23T00:12:33.029Z,60.20
2019-05-23T00:13:08.822Z,55.00
2019-05-23T00:13:44.197Z,48.50
2019-05-23T00:14:19.961Z,63.10
2019-05-23T00:14:55.237Z,78.60
2019-05-23T00:15:30.436Z,72.60
2019-05-23T00:16:05.707Z,73.50
2019-05-23T00:16:41.324Z,71.90
2019-05-23T00:17:16.602Z,76.30
2019-05-23T00:17:51.888Z,70.30
2019-05-23T00:18:27.355Z,77.70
2019-05-23T00:19:02.673Z,74.50
2019-05-23T00:19:37.741Z,64.90
2019-05-23T00:20:13.259Z,54.90
2019-05-23T00:20:48.342Z,61.20
2019-05-23T00:21:23.561Z,64.70
2019-05-23T00:21:58.829Z,69.50
2019-05-23T00:22:34.131Z,64.80
2019-05-23T00:23:09.521Z,70.50
2019-05-23T00:23:44.830Z,74.80
2019-05-23T00:24:20.196Z,66.10
2019-05-23T00:24:55.498Z,69.10
2019-05-23T00:25:30.861Z,69.20
2019-05-23T00:26:06.279Z,70.40
2019-05-23T00:26:41.773Z,70.50
2019-05-23T00:27:16.977Z,81.00
2019-05-23T00:27:52.048Z,80.50
2019-05-23T00:28:27.647Z,73.80
2019-05-23T00:29:09.866Z,54.10
2019-05-23T00:29:40.427Z,69.00
2019-05-23T00:30:13.873Z,74.00
2019-05-23T00:30:49.389Z,70.20
2019-05-23T00:31:24.691Z,69.60
2019-05-23T00:32:00.387Z,58.60
2019-05-23T00:32:35.759Z,53.10
2019-05-23T00:33:11.151Z,49.80
2019-05-23T00:33:46.430Z,60.30
2019-05-23T00:34:21.727Z,76.20
2019-05-23T00:34:57.002Z,71.10
2019-05-23T00:35:32.506Z,58.40
2019-05-23T00:36:07.600Z,65.40
2019-05-23T00:36:42.790Z,68.90
2019-05-23T00:37:18.369Z,73.20
2019-05-23T00:37:53.564Z,75.20
2019-05-23T00:38:28.929Z,63.30
2019-05-23T00:39:04.143Z,62.40
2019-05-23T00:39:39.517Z,58.60
2019-05-23T00:40:14.915Z,54.70
2019-05-23T00:40:50.488Z,62.50
2019-05-23T00:41:25.619Z,57.10
2019-05-23T00:42:00.790Z,60.40
2019-05-23T00:42:36.181Z,72.20
2019-05-23T00:43:11.451Z,70.20
2019-05-23T00:43:46.759Z,70.10
2019-05-23T00:44:22.139Z,60.70
2019-05-23T00:44:57.455Z,50.50
2019-05-23T00:45:32.928Z,79.70
2019-05-23T00:46:08.349Z,75.20
2019-05-23T00:46:43.327Z,78.60
2019-05-23T00:47:18.536Z,66.50
2019-05-23T00:47:53.904Z,70.10
2019-05-23T00:48:29.212Z,67.60
2019-05-23T00:49:04.499Z,72.10
2019-05-23T00:49:39.902Z,60.50
2019-05-23T00:50:15.178Z,55.00
2019-05-23T00:50:50.792Z,64.60
2019-05-23T00:51:26.102Z,68.40
2019-05-23T00:52:01.215Z,74.50
2019-05-23T00:52:36.387Z,66.00
2019-05-23T00:53:11.792Z,60.80
2019-05-23T00:53:47.273Z,66.00
2019-05-23T00:54:22.594Z,77.30
2019-05-23T00:54:57.976Z,71.90
2019-05-23T00:55:33.184Z,58.60
2019-05-23T00:56:08.699Z,55.80
2019-05-23T00:56:44.192Z,57.90
2019-05-23T00:57:19.468Z,63.90
2019-05-23T00:57:54.889Z,75.00
2019-05-23T00:58:30.158Z,76.50
2019-05-23T00:59:05.568Z,77.90
2019-05-23T00:59:40.851Z,74.20
2019-05-23T01:00:16.271Z,56.80
2019-05-23T01:00:51.632Z,75.10
2019-05-23T01:01:26.931Z,70.50
2019-05-23T01:02:02.485Z,61.70
2019-05-23T01:02:37.864Z,67.60
2019-05-23T01:03:13.337Z,57.90
2019-05-23T01:03:48.748Z,49.20
2019-05-23T01:04:24.127Z,47.00
2019-05-23T01:04:59.450Z,65.60
2019-05-23T01:05:34.722Z,75.00
2019-05-23T01:06:09.858Z,65.20
2019-05-23T01:06:44.831Z,53.20
2019-05-23T01:07:20.052Z,69.30
2019-05-23T01:07:55.447Z,82.10
2019-05-23T01:08:30.648Z,83.90
2019-05-23T01:09:06.044Z,66.70
2019-05-23T01:09:41.444Z,53.20
2019-05-23T01:10:16.709Z,56.30
2019-05-23T01:10:52.229Z,67.20
2019-05-23T01:11:27.743Z,73.70
2019-05-23T01:12:03.152Z,70.30
2019-05-23T01:12:38.529Z,72.10
2019-05-23T01:13:13.941Z,80.30
2019-05-23T01:13:49.466Z,82.30
2019-05-23T01:14:24.766Z,79.10
2019-05-23T01:15:00.056Z,69.90
2019-05-23T01:15:35.579Z,67.40
2019-05-23T01:16:11.184Z,62.80
2019-05-23T01:16:46.500Z,72.80
2019-05-23T01:17:21.655Z,67.60
2019-05-23T01:17:56.874Z,75.10
2019-05-23T01:18:32.340Z,73.10
2019-05-23T01:19:07.857Z,80.90
2019-05-23T01:19:43.233Z,74.30
2019-05-23T01:20:18.559Z,76.40
2019-05-23T01:20:53.941Z,82.20
2019-05-23T01:21:29.266Z,76.20
2019-05-23T01:22:04.356Z,75.90
2019-05-23T01:22:40.073Z,77.60
2019-05-23T01:23:15.254Z,73.80
2019-05-23T01:23:50.759Z,87.10
2019-05-23T01:24:25.858Z,72.20
2019-05-23T01:25:01.092Z,75.50
2019-05-23T01:25:36.367Z,71.40
2019-05-23T01:26:11.899Z,69.50
2019-05-23T01:26:47.278Z,66.80
2019-05-23T01:27:22.981Z,70.20
2019-05-23T01:27:58.563Z,73.50
2019-05-23T01:28:33.881Z,74.60
2019-05-23T01:29:09.161Z,63.80
2019-05-23T01:29:49.696Z,52.20
2019-05-23T01:30:19.857Z,78.70
2019-05-23T01:30:55.268Z,81.60
2019-05-23T01:31:30.377Z,66.90
2019-05-23T01:32:05.894Z,64.20
2019-05-23T01:32:41.189Z,68.80
2019-05-23T01:33:16.805Z,65.70
2019-05-23T01:33:52.084Z,63.30
2019-05-23T01:34:27.505Z,69.60
2019-05-23T01:35:03.090Z,69.30
2019-05-23T01:35:38.208Z,76.40
2019-05-23T01:36:13.410Z,62.50
2019-05-23T01:36:48.828Z,59.60
2019-05-23T01:37:24.325Z,59.70
2019-05-23T01:38:04.056Z,69.90
2019-05-23T01:38:35.335Z,78.90
2019-05-23T01:39:10.642Z,77.80
2019-05-23T01:39:45.921Z,59.20
2019-05-23T01:40:21.135Z,51.90
2019-05-23T01:40:56.326Z,60.10
2019-05-23T01:41:31.567Z,75.10
2019-05-23T01:42:07.135Z,66.60
2019-05-23T01:42:42.364Z,61.50
2019-05-23T01:43:17.849Z,69.50
2019-05-23T01:43:53.152Z,78.20
2019-05-23T01:44:28.552Z,81.20
2019-05-23T01:45:03.947Z,56.90
2019-05-23T01:45:39.153Z,62.90
2019-05-23T01:46:14.792Z,78.60
2019-05-23T01:46:49.879Z,89.30
2019-05-23T01:47:25.087Z,89.70
2019-05-23T01:48:00.471Z,74.60
2019-05-23T01:48:35.680Z,54.80
2019-05-23T01:49:10.976Z,55.60
2019-05-23T01:49:46.502Z,75.00
2019-05-23T01:50:21.797Z,84.60
2019-05-23T01:50:57.298Z,60.60
2019-05-23T01:51:32.871Z,61.10
2019-05-23T01:52:08.116Z,66.00
2019-05-23T01:52:43.495Z,64.10
2019-05-23T01:53:18.705Z,70.50
2019-05-23T01:53:53.897Z,73.90
2019-05-23T01:54:29.200Z,71.80
2019-05-23T01:55:04.690Z,62.20
2019-05-23T01:55:39.999Z,57.60
2019-05-23T01:56:15.495Z,68.40
2019-05-23T01:56:50.894Z,77.10
2019-05-23T01:57:26.163Z,63.80
2019-05-23T01:58:01.590Z,75.90
2019-05-23T01:58:36.774Z,79.70
2019-05-23T01:59:12.387Z,82.80
2019-05-23T01:59:48.069Z,85.50
2019-05-23T02:00:23.481Z,75.30
2019-05-23T02:00:58.482Z,67.00
2019-05-23T02:01:33.924Z,62.30
2019-05-23T02:02:09.198Z,50.40
2019-05-23T02:02:44.785Z,62.90
2019-05-23T02:03:20.052Z,77.30
2019-05-23T02:03:55.377Z,71.60
2019-05-23T02:04:30.632Z,72.40
2019-05-23T02:05:05.947Z,61.00
2019-05-23T02:05:41.327Z,48.40
2019-05-23T02:06:16.582Z,74.90
2019-05-23T02:06:51.953Z,84.20
2019-05-23T02:07:27.086Z,82.40
2019-05-23T02:08:02.589Z,63.40
2019-05-23T02:08:37.857Z,72.20
2019-05-23T02:09:13.148Z,71.60
2019-05-23T02:09:48.540Z,63.70
2019-05-23T02:10:23.838Z,72.40
2019-05-23T02:10:58.952Z,66.50
2019-05-23T02:11:34.063Z,53.30
2019-05-23T02:12:09.176Z,63.60
2019-05-23T02:12:44.656Z,70.80
2019-05-23T02:13:20.276Z,78.70
2019-05-23T02:13:55.564Z,72.00
2019-05-23T02:14:30.880Z,76.90
2019-05-23T02:15:06.050Z,75.40
2019-05-23T02:15:41.550Z,82.20
2019-05-23T02:16:16.741Z,73.00
2019-05-23T02:16:52.054Z,59.00
2019-05-23T02:17:27.625Z,69.80
2019-05-23T02:18:02.995Z,79.80
2019-05-23T02:18:38.137Z,73.50
2019-05-23T02:19:13.754Z,73.00
2019-05-23T02:19:48.832Z,73.10
2019-05-23T02:20:24.055Z,69.30
2019-05-23T02:20:59.518Z,78.10
2019-05-23T02:21:35.255Z,79.00
2019-05-23T02:22:10.554Z,78.00
2019-05-23T02:22:46.366Z,85.50
2019-05-23T02:23:21.648Z,75.50
2019-05-23T02:23:57.370Z,65.60
2019-05-23T02:24:32.544Z,58.00
2019-05-23T02:25:08.044Z,56.40
2019-05-23T02:25:43.220Z,71.50
2019-05-23T02:26:18.448Z,92.10
2019-05-23T02:26:54.029Z,84.30
2019-05-23T02:27:29.574Z,58.30
2019-05-23T02:28:04.963Z,67.70
2019-05-23T02:28:40.455Z,79.80
2019-05-23T02:29:15.941Z,96.80
2019-05-23T02:29:51.076Z,82.10
2019-05-23T02:30:35.787Z,85.60
2019-05-23T02:31:01.663Z,71.50
2019-05-23T02:31:36.784Z,69.60
2019-05-23T02:32:12.387Z,71.50
2019-05-23T02:32:47.867Z,70.30
2019-05-23T02:33:23.262Z,67.70
2019-05-23T02:33:58.545Z,67.40
2019-05-23T02:34:33.772Z,64.60
2019-05-23T02:35:09.157Z,66.50
2019-05-23T02:35:44.693Z,62.10
2019-05-23T02:36:19.748Z,64.00
2019-05-23T02:36:54.963Z,63.10
2019-05-23T02:37:30.433Z,68.40
2019-05-23T02:38:05.745Z,79.80
2019-05-23T02:38:41.099Z,75.50
2019-05-23T02:39:16.410Z,85.40
2019-05-23T02:39:51.386Z,97.80
2019-05-23T02:40:26.804Z,90.60
2019-05-23T02:41:02.285Z,80.40
2019-05-23T02:41:37.604Z,77.50
2019-05-23T02:42:12.686Z,79.80
2019-05-23T02:42:48.204Z,73.90
2019-05-23T02:43:23.693Z,75.70
2019-05-23T02:43:58.904Z,70.00
2019-05-23T02:44:34.384Z,65.90
2019-05-23T02:45:09.899Z,65.70
2019-05-23T02:45:45.074Z,73.10
2019-05-23T02:46:20.435Z,69.50
2019-05-23T02:46:55.711Z,59.20
2019-05-23T02:47:31.419Z,65.70
2019-05-23T02:48:06.811Z,68.00
2019-05-23T02:48:42.112Z,78.90
2019-05-23T02:49:17.191Z,79.10
2019-05-23T02:49:52.500Z,61.00
2019-05-23T02:50:27.789Z,77.70
2019-05-23T02:51:03.141Z,88.80
2019-05-23T02:51:38.505Z,84.60
2019-05-23T02:52:14.209Z,61.40
2019-05-23T02:52:49.383Z,48.20
2019-05-23T02:53:24.594Z,50.40
2019-05-23T02:53:59.858Z,63.60
2019-05-23T02:54:37.448Z,66.50
2019-05-23T02:55:10.570Z,74.30
2019-05-23T02:55:45.688Z,69.40
2019-05-23T02:56:21.178Z,61.00
2019-05-23T02:56:56.514Z,76.20
2019-05-23T02:57:31.996Z,85.80
2019-05-23T02:58:07.306Z,87.00
2019-05-23T02:58:42.579Z,75.80
2019-05-23T02:59:17.882Z,69.20
2019-05-23T02:59:53.263Z,82.70
2019-05-23T03:00:28.757Z,86.20
2019-05-23T03:01:04.039Z,75.80
2019-05-23T03:01:39.740Z,84.90
2019-05-23T03:02:15.121Z,81.80
2019-05-23T03:02:50.349Z,80.90
2019-05-23T03:03:25.526Z,80.00
2019-05-23T03:04:00.728Z,75.10
2019-05-23T03:04:36.409Z,76.10
2019-05-23T03:05:11.811Z,79.90
2019-05-23T03:05:47.084Z,90.10
2019-05-23T03:06:22.420Z,73.10
2019-05-23T03:06:57.502Z,96.80
2019-05-23T03:07:32.812Z,87.80
2019-05-23T03:08:08.399Z,80.80
2019-05-23T03:08:43.700Z,68.70
2019-05-23T03:09:18.772Z,60.30
2019-05-23T03:09:54.089Z,95.20
2019-05-23T03:10:29.570Z,91.70
2019-05-23T03:11:04.983Z,82.80
2019-05-23T03:11:40.308Z,86.50
2019-05-23T03:12:15.841Z,86.30
2019-05-23T03:12:51.120Z,87.40
2019-05-23T03:13:26.613Z,86.40
2019-05-23T03:14:02.187Z,78.50
2019-05-23T03:14:37.791Z,89.20
2019-05-23T03:15:13.268Z,87.10
2019-05-23T03:15:48.485Z,81.10
2019-05-23T03:16:23.690Z,87.90
2019-05-23T03:16:58.794Z,96.00
2019-05-23T03:17:33.981Z,91.40
2019-05-23T03:18:09.486Z,78.40
2019-05-23T03:18:44.955Z,64.80
2019-05-23T03:19:20.454Z,68.30
2019-05-23T03:19:56.157Z,76.30
2019-05-23T03:20:31.269Z,84.70
2019-05-23T03:21:06.748Z,100.90
2019-05-23T03:21:41.961Z,82.30
2019-05-23T03:22:17.144Z,78.70
2019-05-23T03:22:52.651Z,75.90
2019-05-23T03:23:27.922Z,78.80
2019-05-23T03:24:03.549Z,79.00
2019-05-23T03:24:38.722Z,87.50
2019-05-23T03:25:14.214Z,79.50
2019-05-23T03:25:49.488Z,58.70
2019-05-23T03:26:25.117Z,56.40
2019-05-23T03:27:00.374Z,67.70
2019-05-23T03:27:35.390Z,87.70
2019-05-23T03:28:11.060Z,91.30
2019-05-23T03:28:46.322Z,67.00
2019-05-23T03:29:21.560Z,61.40
2019-05-23T03:29:56.758Z,77.60
2019-05-23T03:30:31.937Z,88.30
2019-05-23T03:31:27.393Z,78.20
2019-05-23T03:31:42.787Z,82.30
2019-05-23T03:32:18.258Z,83.30
2019-05-23T03:32:53.354Z,77.40
2019-05-23T03:33:28.688Z,90.60
2019-05-23T03:34:04.077Z,90.30
2019-05-23T03:34:39.365Z,66.00
2019-05-23T03:35:14.544Z,77.80
2019-05-23T03:35:49.846Z,82.30
2019-05-23T03:36:25.523Z,87.60
2019-05-23T03:37:00.843Z,74.50
2019-05-23T03:37:56.127Z,76.40
2019-05-23T03:38:31.521Z,87.30
2019-05-23T03:39:06.710Z,77.30
2019-05-23T03:39:42.118Z,67.40
2019-05-23T03:40:17.392Z,64.00
2019-05-23T03:40:52.905Z,61.80
2019-05-23T03:41:28.087Z,70.90
2019-05-23T03:42:03.398Z,83.70
2019-05-23T03:42:38.576Z,74.20
2019-05-23T03:43:13.871Z,68.20
2019-05-23T03:43:49.163Z,65.30
2019-05-23T03:44:24.480Z,73.10
2019-05-23T03:44:59.851Z,79.10
2019-05-23T03:45:39.357Z,73.00
2019-05-23T03:46:10.752Z,76.70
2019-05-23T03:46:46.161Z,78.60
2019-05-23T03:47:21.352Z,57.90
2019-05-23T03:47:56.758Z,68.30
2019-05-23T03:48:32.047Z,81.90
2019-05-23T03:49:07.456Z,72.20
2019-05-23T03:49:42.833Z,64.20
2019-05-23T03:50:18.326Z,63.80
2019-05-23T03:50:53.718Z,69.90
2019-05-23T03:51:29.047Z,78.60
2019-05-23T03:52:04.632Z,94.80
2019-05-23T03:52:39.833Z,68.70
2019-05-23T03:53:15.113Z,78.00
2019-05-23T03:53:50.720Z,90.10
2019-05-23T03:54:26.006Z,80.40
2019-05-23T03:55:01.809Z,83.20
2019-05-23T03:55:37.079Z,87.00
2019-05-23T03:56:12.298Z,83.00
2019-05-23T03:56:47.372Z,83.30
2019-05-23T03:57:25.573Z,83.10
2019-05-23T03:57:57.959Z,89.70
2019-05-23T03:58:33.680Z,87.10
2019-05-23T03:59:08.949Z,83.20
2019-05-23T03:59:44.458Z,71.30
2019-05-23T04:00:20.047Z,61.00
2019-05-23T04:00:55.347Z,79.20
2019-05-23T04:01:45.979Z,86.40
2019-05-23T04:02:05.767Z,88.10
2019-05-23T04:02:41.332Z,83.00
2019-05-23T04:03:16.868Z,72.70
2019-05-23T04:03:52.010Z,69.30
2019-05-23T04:04:27.319Z,76.60
2019-05-23T04:05:02.532Z,78.00
2019-05-23T04:05:37.704Z,79.20
2019-05-23T04:06:13.000Z,71.80
2019-05-23T04:06:48.112Z,88.10
2019-05-23T04:07:23.290Z,91.70
2019-05-23T04:07:58.718Z,81.50
2019-05-23T04:08:34.010Z,75.50
2019-05-23T04:09:09.349Z,66.10
2019-05-23T04:09:44.723Z,62.70
2019-05-23T04:10:19.830Z,91.00
2019-05-23T04:10:55.086Z,95.00
2019-05-23T04:11:30.535Z,91.70
2019-05-23T04:12:05.798Z,83.40
2019-05-23T04:12:41.128Z,84.20
2019-05-23T04:13:16.728Z,92.10
2019-05-23T04:13:51.923Z,98.70
2019-05-23T04:14:27.113Z,87.70
2019-05-23T04:15:02.099Z,68.40
2019-05-23T04:15:37.280Z,80.50
2019-05-23T04:16:12.582Z,91.70
2019-05-23T04:16:47.869Z,94.50
2019-05-23T04:17:23.272Z,81.30
2019-05-23T04:17:58.449Z,89.70
2019-05-23T04:18:33.441Z,96.50
2019-05-23T04:19:08.821Z,87.20
2019-05-23T04:19:44.229Z,96.80
2019-05-23T04:20:19.200Z,85.30
2019-05-23T04:20:54.409Z,68.10
2019-05-23T04:21:29.726Z,80.90
2019-05-23T04:22:05.021Z,84.50
2019-05-23T04:22:40.403Z,74.30
2019-05-23T04:23:15.500Z,61.80
2019-05-23T04:23:50.776Z,79.50
2019-05-23T04:24:26.173Z,77.70
2019-05-23T04:25:02.323Z,81.70
2019-05-23T04:25:37.192Z,78.70
2019-05-23T04:26:12.502Z,70.20
2019-05-23T04:26:47.783Z,81.40
2019-05-23T04:27:23.377Z,81.40
2019-05-23T04:27:58.559Z,78.40
2019-05-23T04:28:33.753Z,79.30
2019-05-23T04:29:09.031Z,72.20
2019-05-23T04:29:44.331Z,56.40
2019-05-23T04:30:19.500Z,62.10
2019-05-23T04:30:54.899Z,67.50
2019-05-23T04:31:30.203Z,76.10
2019-05-23T04:32:08.745Z,72.60
2019-05-23T04:32:41.026Z,70.10
2019-05-23T04:33:16.291Z,62.50
2019-05-23T04:33:51.581Z,66.90
2019-05-23T04:34:27.288Z,77.40
2019-05-23T04:35:02.556Z,81.60
2019-05-23T04:35:38.191Z,70.90
2019-05-23T04:36:13.894Z,60.70
2019-05-23T04:36:49.189Z,59.90
2019-05-23T04:37:24.674Z,80.90
2019-05-23T04:37:59.974Z,80.70
2019-05-23T04:38:36.442Z,84.00
2019-05-23T04:39:10.574Z,81.80
2019-05-23T04:39:46.143Z,61.60
2019-05-23T04:40:21.365Z,52.40
2019-05-23T04:40:56.735Z,65.40
2019-05-23T04:41:32.254Z,70.10
2019-05-23T04:42:07.938Z,74.40
2019-05-23T04:42:43.259Z,79.10
2019-05-23T04:43:19.034Z,82.80
2019-05-23T04:43:54.447Z,84.50
2019-05-23T04:44:29.622Z,79.30
2019-05-23T04:45:04.813Z,88.30
2019-05-23T04:45:40.130Z,74.60
2019-05-23T04:46:15.361Z,55.40
2019-05-23T04:46:50.756Z,60.70
2019-05-23T04:47:26.036Z,64.50
2019-05-23T04:48:01.649Z,68.60
2019-05-23T04:48:36.819Z,72.30
2019-05-23T04:49:12.148Z,59.40
2019-05-23T04:49:47.412Z,57.10
2019-05-23T04:50:22.810Z,69.30
2019-05-23T04:51:00.179Z,60.20
2019-05-23T04:51:33.645Z,65.50
2019-05-23T04:52:09.031Z,62.70
2019-05-23T04:52:44.155Z,56.20
2019-05-23T04:53:19.437Z,49.90
2019-05-23T04:53:54.738Z,59.30
2019-05-23T04:54:30.029Z,59.90
2019-05-23T04:55:05.328Z,52.40
2019-05-23T04:55:40.607Z,46.00
2019-05-23T04:56:16.028Z,43.40
2019-05-23T04:56:51.207Z,54.60
2019-05-23T04:57:26.809Z,56.90
2019-05-23T04:58:04.665Z,60.20
2019-05-23T04:58:37.386Z,49.60
2019-05-23T04:59:12.868Z,40.70
2019-05-23T04:59:48.189Z,43.70
2019-05-23T05:00:23.559Z,50.40
2019-05-23T05:00:59.501Z,47.70
2019-05-23T05:01:34.837Z,41.50
2019-05-23T05:02:24.777Z,40.50
2019-05-23T05:02:45.522Z,47.30
2019-05-23T05:03:20.901Z,38.60
2019-05-23T05:03:56.102Z,38.40
2019-05-23T05:04:31.423Z,36.90
2019-05-23T05:05:06.791Z,33.90
2019-05-23T05:05:41.921Z,38.70
2019-05-23T05:06:17.207Z,34.90
2019-05-23T05:06:52.406Z,31.90
2019-05-23T05:07:27.874Z,27.40
2019-05-23T05:08:03.313Z,27.90
2019-05-23T05:08:38.742Z,35.80
2019-05-23T05:09:14.227Z,37.20
2019-05-23T05:09:49.454Z,36.30
2019-05-23T05:10:24.846Z,29.90
2019-05-23T05:11:00.148Z,27.80
2019-05-23T05:11:35.545Z,29.10
2019-05-23T05:12:10.637Z,40.40
2019-05-23T05:12:46.214Z,30.80
2019-05-23T05:13:21.632Z,24.60
2019-05-23T05:13:57.316Z,24.70
2019-05-23T05:14:33.583Z,22.50
2019-05-23T05:15:09.062Z,23.80
2019-05-23T05:15:44.333Z,35.30
2019-05-23T05:16:19.579Z,30.80
2019-05-23T05:16:54.966Z,25.70
2019-05-23T05:17:30.602Z,23.00
2019-05-23T05:18:06.311Z,24.30
2019-05-23T05:18:41.518Z,24.20
2019-05-23T05:19:16.748Z,26.90
2019-05-23T05:19:51.995Z,25.40
2019-05-23T05:20:27.389Z,24.20
2019-05-23T05:21:02.784Z,23.30
2019-05-23T05:21:38.231Z,34.10
2019-05-23T05:22:13.910Z,29.30
2019-05-23T05:22:49.191Z,28.70
2019-05-23T05:23:24.702Z,29.70
2019-05-23T05:24:00.080Z,27.60
2019-05-23T05:24:39.809Z,26.60
2019-05-23T05:25:10.972Z,35.10
2019-05-23T05:25:46.182Z,31.70
2019-05-23T05:26:21.349Z,26.80
2019-05-23T05:26:56.627Z,21.40
2019-05-23T05:27:31.942Z,26.40
2019-05-23T05:28:07.134Z,27.70
2019-05-23T05:28:42.550Z,25.40
2019-05-23T05:29:17.741Z,25.90
2019-05-23T05:29:53.085Z,26.50
2019-05-23T05:30:28.366Z,29.60
2019-05-23T05:31:03.827Z,29.60
2019-05-23T05:31:39.338Z,23.00
2019-05-23T05:32:14.848Z,23.90
2019-05-23T05:32:50.435Z,26.20
2019-05-23T05:33:25.647Z,27.90
2019-05-23T05:34:01.043Z,27.80
2019-05-23T05:34:36.336Z,24.20
2019-05-23T05:35:11.667Z,22.90
2019-05-23T05:35:46.939Z,24.60
2019-05-23T05:36:22.363Z,26.90
2019-05-23T05:36:57.966Z,27.80
2019-05-23T05:37:33.368Z,26.00
2019-05-23T05:38:08.661Z,23.90
2019-05-23T05:38:44.167Z,25.80
2019-05-23T05:39:19.862Z,30.90
2019-05-23T05:39:55.061Z,32.20
2019-05-23T05:40:30.538Z,31.60
2019-05-23T05:41:05.762Z,27.70
2019-05-23T05:41:40.954Z,25.40
2019-05-23T05:42:16.273Z,31.20
2019-05-23T05:42:51.350Z,31.00
2019-05-23T05:43:26.667Z,28.90
2019-05-23T05:44:02.169Z,37.30
2019-05-23T05:44:37.567Z,33.30
2019-05-23T05:45:13.162Z,33.10
2019-05-23T05:45:48.473Z,29.50
2019-05-23T05:46:23.997Z,28.60
2019-05-23T05:46:59.502Z,29.40
2019-05-23T05:47:34.887Z,31.20
2019-05-23T05:48:10.399Z,37.20
2019-05-23T05:48:46.084Z,36.30
2019-05-23T05:49:21.517Z,30.80
2019-05-23T05:49:56.700Z,26.10
2019-05-23T05:50:31.902Z,28.00
2019-05-23T05:51:07.052Z,34.20
2019-05-23T05:51:42.284Z,32.50
2019-05-23T05:52:17.583Z,33.00
2019-05-23T05:52:52.896Z,33.90
2019-05-23T05:53:28.322Z,36.00
2019-05-23T05:54:03.640Z,39.70
2019-05-23T05:54:38.941Z,33.90
2019-05-23T05:55:14.329Z,30.10
2019-05-23T05:55:49.646Z,38.20
2019-05-23T05:56:25.059Z,36.10
2019-05-23T05:57:00.671Z,33.30
2019-05-23T05:57:36.053Z,32.80
2019-05-23T05:58:11.570Z,31.00
2019-05-23T05:58:46.855Z,35.40
2019-05-23T05:59:22.035Z,40.70
2019-05-23T05:59:57.251Z,35.90
2019-05-23T06:00:32.547Z,48.90
2019-05-23T06:01:07.897Z,42.40
2019-05-23T06:01:43.580Z,43.10
2019-05-23T06:02:18.887Z,50.00
2019-05-23T06:03:03.450Z,40.70
2019-05-23T06:03:29.413Z,34.00
2019-05-23T06:04:04.791Z,67.20
2019-05-23T06:04:40.282Z,43.30
2019-05-23T06:05:15.454Z,41.80
2019-05-23T06:05:50.591Z,37.10
2019-05-23T06:06:26.005Z,38.40
2019-05-23T06:07:01.722Z,43.80
2019-05-23T06:07:36.907Z,39.70
2019-05-23T06:08:12.478Z,45.90
2019-05-23T06:08:47.839Z,41.50
2019-05-23T06:09:23.014Z,39.80
2019-05-23T06:09:58.625Z,40.60
2019-05-23T06:10:34.420Z,45.90
2019-05-23T06:11:09.971Z,38.50
2019-05-23T06:11:45.359Z,36.80
2019-05-23T06:12:20.785Z,35.50
2019-05-23T06:12:55.972Z,35.10
2019-05-23T06:13:31.377Z,40.80
2019-05-23T06:14:06.739Z,44.60
2019-05-23T06:14:45.944Z,36.30
2019-05-23T06:15:17.487Z,37.50
2019-05-23T06:15:52.752Z,40.70
2019-05-23T06:16:27.891Z,45.40
2019-05-23T06:17:03.591Z,41.80
2019-05-23T06:17:39.198Z,34.80
2019-05-23T06:18:14.488Z,34.80
2019-05-23T06:18:49.786Z,36.80
2019-05-23T06:19:24.976Z,44.70
2019-05-23T06:20:00.307Z,38.80
2019-05-23T06:20:35.580Z,38.80
2019-05-23T06:21:10.903Z,49.00
2019-05-23T06:21:46.315Z,43.70
2019-05-23T06:22:21.836Z,42.80
2019-05-23T06:22:57.341Z,43.60
2019-05-23T06:23:32.841Z,34.00
2019-05-23T06:24:08.184Z,33.00
2019-05-23T06:24:48.914Z,34.80
2019-05-23T06:25:18.911Z,44.60
2019-05-23T06:25:54.601Z,36.50
2019-05-23T06:26:29.837Z,35.70
2019-05-23T06:27:05.249Z,37.70
2019-05-23T06:27:40.466Z,46.70
2019-05-23T06:28:15.944Z,42.90
2019-05-23T06:28:51.371Z,32.00
2019-05-23T06:29:26.762Z,34.50
2019-05-23T06:30:02.192Z,39.00
2019-05-23T06:30:37.290Z,56.40
2019-05-23T06:31:12.927Z,47.60
2019-05-23T06:31:48.230Z,38.00
2019-05-23T06:32:23.457Z,35.50
2019-05-23T06:32:58.673Z,57.60
2019-05-23T06:33:34.282Z,54.50
2019-05-23T06:34:09.495Z,36.40
2019-05-23T06:34:44.999Z,32.00
2019-05-23T06:35:20.350Z,38.10
2019-05-23T06:35:55.532Z,54.30
2019-05-23T06:36:31.169Z,63.20
2019-05-23T06:37:06.441Z,42.00
2019-05-23T06:37:42.176Z,32.00
2019-05-23T06:38:17.375Z,71.70
2019-05-23T06:38:52.686Z,51.70
2019-05-23T06:39:28.078Z,56.00
2019-05-23T06:40:03.498Z,39.20
2019-05-23T06:40:38.985Z,34.10
2019-05-23T06:41:14.220Z,61.30
2019-05-23T06:41:49.654Z,53.00
2019-05-23T06:42:24.849Z,40.10
2019-05-23T06:43:00.392Z,35.80
2019-05-23T06:43:35.807Z,40.60
2019-05-23T06:44:11.131Z,50.80
2019-05-23T06:44:46.515Z,52.20
2019-05-23T06:45:21.832Z,43.20
2019-05-23T06:45:57.023Z,32.70
2019-05-23T06:46:32.461Z,39.70
2019-05-23T06:47:07.649Z,68.30
2019-05-23T06:47:43.159Z,51.50
2019-05-23T06:48:18.580Z,48.30
2019-05-23T06:48:53.952Z,41.00
2019-05-23T06:49:29.174Z,43.20
2019-05-23T06:50:04.598Z,37.10
2019-05-23T06:50:39.809Z,30.80
2019-05-23T06:51:14.852Z,32.00
2019-05-23T06:51:50.281Z,30.70
2019-05-23T06:52:25.682Z,37.00
2019-05-23T06:53:01.101Z,29.40
2019-05-23T06:53:36.592Z,29.50
2019-05-23T06:54:12.131Z,50.20
2019-05-23T06:54:47.427Z,47.60
2019-05-23T06:55:22.548Z,41.90
2019-05-23T06:55:57.822Z,32.00
2019-05-23T06:56:32.954Z,30.70
2019-05-23T06:57:08.338Z,29.70
2019-05-23T06:57:43.693Z,33.00
2019-05-23T06:58:19.684Z,27.00
2019-05-23T06:58:54.750Z,27.50
2019-05-23T06:59:30.470Z,41.80
2019-05-23T07:00:05.933Z,50.50
2019-05-23T07:00:41.319Z,42.20
2019-05-23T07:01:16.833Z,34.10
2019-05-23T07:01:52.155Z,28.90
2019-05-23T07:02:31.495Z,32.30
2019-05-23T07:03:03.108Z,34.50
2019-05-23T07:03:43.203Z,36.40
2019-05-23T07:04:13.823Z,31.70
2019-05-23T07:04:49.198Z,24.80
2019-05-23T07:05:24.621Z,29.80
2019-05-23T07:06:00.139Z,30.40
2019-05-23T07:06:35.311Z,32.70
2019-05-23T07:07:10.531Z,32.10
2019-05-23T07:07:45.740Z,28.40
2019-05-23T07:08:25.015Z,34.20
2019-05-23T07:08:56.424Z,39.00
2019-05-23T07:09:31.973Z,31.70
2019-05-23T07:10:07.657Z,29.60
2019-05-23T07:10:43.759Z,27.60
2019-05-23T07:11:18.434Z,42.90
2019-05-23T07:11:53.645Z,36.40
2019-05-23T07:12:29.029Z,30.40
2019-05-23T07:13:04.368Z,31.70
2019-05-23T07:13:39.452Z,47.80
2019-05-23T07:14:14.705Z,45.70
2019-05-23T07:14:50.192Z,42.50
2019-05-23T07:15:25.767Z,68.70
2019-05-23T07:16:01.188Z,53.00
2019-05-23T07:16:36.790Z,48.20
2019-05-23T07:17:12.129Z,49.10
2019-05-23T07:17:47.304Z,39.80
2019-05-23T07:18:22.530Z,27.90
2019-05-23T07:18:57.928Z,50.40
2019-05-23T07:19:33.450Z,39.50
2019-05-23T07:20:08.698Z,40.00
2019-05-23T07:20:44.471Z,32.70
2019-05-23T07:21:19.315Z,41.90
2019-05-23T07:21:54.983Z,52.30
2019-05-23T07:22:29.945Z,50.70
2019-05-23T07:23:05.266Z,41.70
2019-05-23T07:23:40.585Z,33.30
2019-05-23T07:24:15.787Z,34.50
2019-05-23T07:24:58.214Z,38.00
2019-05-23T07:25:26.805Z,28.60
2019-05-23T07:26:02.488Z,26.70
2019-05-23T07:26:37.532Z,29.20
2019-05-23T07:27:12.741Z,28.80
2019-05-23T07:27:47.942Z,29.40
2019-05-23T07:28:23.261Z,24.40
2019-05-23T07:28:58.800Z,25.00
2019-05-23T07:29:34.371Z,28.60
2019-05-23T07:30:09.681Z,26.40
2019-05-23T07:30:44.797Z,25.50
2019-05-23T07:31:20.037Z,26.80
2019-05-23T07:31:55.422Z,29.60
2019-05-23T07:32:30.641Z,31.50
2019-05-23T07:33:06.135Z,48.70
2019-05-23T07:33:59.935Z,30.90
2019-05-23T07:34:16.918Z,53.70
2019-05-23T07:34:52.290Z,33.10
2019-05-23T07:35:27.472Z,26.20